Time;durP1;ratioP1;P1;durP2;ratioP2;P2;SDS_P1;SDS_P2;PMS_P1;PMS_P2;Temp;Humidity;BMP_temperature;BMP_pressure;BME280_temperature;BME280_humidity;BME280_pressure;Samples;Min_cycle;Max_cycle;Signal;HPM_P1;HPM_P2
2021/08/30 00:02:06;;;;;;;13.95;13.00;;;11.80;89.70;;;;;;4941351;29;20116;-73
2021/08/30 00:04:39;;;;;;;13.55;12.57;;;11.70;89.20;;;;;;4942133;29;20051;-73
2021/08/30 00:07:10;;;;;;;14.13;13.02;;;11.70;89.40;;;;;;4936568;29;20043;-73
2021/08/30 00:09:42;;;;;;;13.27;12.38;;;11.80;89.50;;;;;;4941987;29;20077;-73
2021/08/30 00:12:14;;;;;;;13.63;12.73;;;11.70;89.50;;;;;;4942836;29;20077;-74
2021/08/30 00:14:46;;;;;;;13.73;12.80;;;11.70;89.10;;;;;;4943103;29;20908;-73
2021/08/30 00:17:19;;;;;;;13.85;12.85;;;11.70;89.20;;;;;;4944227;29;20063;-73
2021/08/30 00:19:51;;;;;;;13.30;12.40;;;11.70;89.10;;;;;;4941859;29;20067;-74
2021/08/30 00:22:23;;;;;;;14.27;13.27;;;11.70;89.30;;;;;;4942585;29;20138;-73
2021/08/30 00:24:55;;;;;;;14.23;13.23;;;11.70;89.50;;;;;;4943330;29;20055;-73
2021/08/30 00:27:29;;;;;;;13.93;12.93;;;11.70;89.70;;;;;;4941225;29;20058;-73
2021/08/30 00:30:01;;;;;;;14.32;13.32;;;11.70;89.80;;;;;;4942220;29;20526;-75
2021/08/30 00:32:33;;;;;;;13.90;12.88;;;11.70;89.80;;;;;;4942878;29;20651;-73
2021/08/30 00:35:06;;;;;;;14.18;13.18;;;11.70;90.20;;;;;;4941698;29;20079;-73
2021/08/30 00:37:38;;;;;;;14.43;13.43;;;11.70;90.00;;;;;;4943407;29;20067;-72
2021/08/30 00:40:11;;;;;;;14.35;13.35;;;11.70;90.10;;;;;;4942333;29;20086;-73
2021/08/30 00:42:44;;;;;;;15.25;13.90;;;11.60;89.70;;;;;;4941431;29;20478;-74
2021/08/30 00:45:16;;;;;;;14.63;13.63;;;11.60;90.30;;;;;;4955528;29;20079;-73
2021/08/30 00:47:48;;;;;;;14.35;13.35;;;11.60;90.00;;;;;;4943749;29;20717;-74
2021/08/30 00:50:20;;;;;;;14.10;13.10;;;11.60;90.00;;;;;;4942066;29;20130;-73
2021/08/30 00:52:52;;;;;;;14.35;13.35;;;11.70;90.00;;;;;;4941941;29;20065;-73
2021/08/30 00:55:25;;;;;;;14.05;13.05;;;11.70;90.00;;;;;;4941147;29;20049;-73
2021/08/30 00:57:58;;;;;;;14.05;13.07;;;11.70;90.10;;;;;;4940910;29;20134;-73
2021/08/30 01:00:30;;;;;;;14.45;13.45;;;11.60;90.10;;;;;;4940546;29;20043;-74
2021/08/30 01:03:02;;;;;;;14.70;13.60;;;11.60;90.10;;;;;;4936716;29;20165;-74
2021/08/30 01:05:39;;;;;;;14.68;13.68;;;11.60;90.10;;;;;;4942401;29;20055;-73
2021/08/30 01:08:15;;;;;;;14.63;13.63;;;11.60;89.80;;;;;;4942246;29;20407;-74
2021/08/30 01:11:12;;;;;;;14.52;13.52;;;11.60;90.10;;;;;;4942803;29;20143;-73
2021/08/30 01:13:51;;;;;;;14.02;13.02;;;11.60;90.10;;;;;;4942895;29;20412;-74
2021/08/30 01:16:25;;;;;;;14.68;13.55;;;11.60;90.10;;;;;;4942168;29;20151;-74
2021/08/30 01:18:59;;;;;;;14.68;13.68;;;11.60;90.10;;;;;;4941423;29;20055;-74
2021/08/30 01:21:38;;;;;;;14.90;13.80;;;11.60;90.10;;;;;;4940963;29;20188;-73
2021/08/30 01:24:17;;;;;;;15.00;14.00;;;11.60;90.10;;;;;;4930487;29;20126;-73
2021/08/30 01:26:54;;;;;;;14.07;13.13;;;11.60;90.00;;;;;;4942297;29;20054;-74
2021/08/30 01:29:49;;;;;;;14.85;13.85;;;11.60;89.80;;;;;;4940892;29;20131;-72
2021/08/30 01:32:29;;;;;;;15.20;14.10;;;11.60;89.80;;;;;;4941134;29;20063;-73
2021/08/30 01:35:05;;;;;;;14.85;13.85;;;11.60;90.00;;;;;;4956083;29;20134;-73
2021/08/30 01:37:39;;;;;;;14.20;13.07;;;11.60;90.00;;;;;;4941680;29;20055;-74
2021/08/30 01:40:13;;;;;;;14.75;13.75;;;11.60;90.00;;;;;;4940850;29;20047;-74
2021/08/30 01:42:50;;;;;;;14.80;13.70;;;11.60;89.70;;;;;;4941861;29;20135;-73
2021/08/30 01:45:25;;;;;;;15.07;13.98;;;11.60;89.60;;;;;;4941537;29;20098;-74
2021/08/30 01:48:00;;;;;;;14.95;13.95;;;11.70;89.70;;;;;;4942115;29;20055;-74
2021/08/30 01:50:34;;;;;;;15.93;14.73;;;11.70;89.70;;;;;;4941774;29;20606;-74
2021/08/30 01:53:07;;;;;;;15.43;14.32;;;11.70;89.70;;;;;;4941887;29;20079;-74
2021/08/30 01:55:48;;;;;;;15.00;13.90;;;11.60;89.90;;;;;;4945056;29;20503;-73
2021/08/30 02:00:53;;;;;;;15.07;14.07;;;11.60;89.80;;;;;;4944545;29;20539;-73
2021/08/30 02:03:27;;;;;;;15.30;14.30;;;11.60;90.00;;;;;;4944866;29;20058;-73
2021/08/30 02:06:01;;;;;;;15.30;14.10;;;11.60;90.10;;;;;;4954172;29;20056;-74
2021/08/30 02:08:34;;;;;;;15.40;14.40;;;11.60;90.20;;;;;;4945805;29;20161;-72
2021/08/30 02:11:09;;;;;;;15.45;14.35;;;11.60;91.10;;;;;;4943843;29;20142;-74
2021/08/30 02:13:41;;;;;;;15.23;14.23;;;11.50;91.20;;;;;;4944117;29;20055;-74
2021/08/30 02:16:13;;;;;;;15.20;14.20;;;11.50;90.80;;;;;;4944744;29;20138;-74
2021/08/30 02:19:07;;;;;;;14.75;13.75;;;11.50;91.10;;;;;;4946132;29;20610;-73
2021/08/30 02:21:45;;;;;;;15.68;14.57;;;11.50;91.40;;;;;;4939663;29;20071;-75
2021/08/30 02:24:32;;;;;;;15.38;14.38;;;11.50;91.10;;;;;;4943849;29;20532;-73
2021/08/30 02:27:17;;;;;;;15.82;14.63;;;11.50;91.10;;;;;;4944536;29;20248;-74
2021/08/30 02:29:55;;;;;;;16.30;15.10;;;11.50;90.90;;;;;;4945392;29;20039;-74
2021/08/30 02:32:29;;;;;;;15.88;14.77;;;11.60;90.70;;;;;;4943906;29;20457;-74
2021/08/30 02:35:04;;;;;;;16.17;15.07;;;11.60;90.90;;;;;;4945418;29;20484;-74
2021/08/30 02:37:39;;;;;;;15.00;14.00;;;11.60;90.90;;;;;;4943030;29;20061;-74
2021/08/30 02:40:12;;;;;;;15.68;14.68;;;11.60;91.10;;;;;;4944600;29;20171;-74
2021/08/30 02:42:46;;;;;;;15.73;14.63;;;11.60;91.20;;;;;;4943828;29;20071;-75
2021/08/30 02:45:18;;;;;;;16.15;14.85;;;11.60;90.80;;;;;;4944639;29;20082;-74
2021/08/30 02:47:51;;;;;;;16.02;14.93;;;11.60;90.80;;;;;;4944147;29;20079;-73
2021/08/30 02:50:24;;;;;;;15.75;14.65;;;11.60;90.80;;;;;;4944153;29;20079;-74
2021/08/30 02:52:59;;;;;;;15.48;14.38;;;11.70;91.50;;;;;;4944070;29;20506;-73
2021/08/30 02:55:31;;;;;;;15.30;14.30;;;11.60;90.70;;;;;;4944390;29;20071;-73
2021/08/30 02:58:05;;;;;;;15.80;14.60;;;11.60;90.80;;;;;;4945684;29;20060;-73
2021/08/30 03:00:37;;;;;;;15.68;14.57;;;11.60;91.00;;;;;;4943129;29;20454;-73
2021/08/30 03:03:10;;;;;;;15.68;14.52;;;11.60;91.10;;;;;;4943140;29;20051;-73
2021/08/30 03:05:42;;;;;;;15.20;14.20;;;11.60;91.80;;;;;;4942114;29;20071;-73
2021/08/30 03:08:15;;;;;;;15.52;14.50;;;11.60;91.00;;;;;;4944814;29;20137;-73
2021/08/30 03:10:48;;;;;;;15.50;14.40;;;11.70;91.00;;;;;;4944138;29;20130;-72
2021/08/30 03:13:20;;;;;;;15.35;14.25;;;11.70;90.90;;;;;;4943795;29;20057;-72
2021/08/30 03:15:53;;;;;;;15.45;14.35;;;11.70;90.60;;;;;;4943303;29;20170;-72
2021/08/30 03:18:26;;;;;;;15.32;14.23;;;11.70;90.50;;;;;;4943924;29;20524;-72
2021/08/30 03:20:58;;;;;;;14.88;13.77;;;11.70;90.60;;;;;;4944070;29;20716;-72
2021/08/30 03:23:31;;;;;;;15.43;14.32;;;11.70;90.80;;;;;;4944488;29;20060;-73
2021/08/30 03:26:05;;;;;;;15.30;14.30;;;11.80;90.40;;;;;;4942366;29;20150;-73
2021/08/30 03:28:37;;;;;;;14.57;13.57;;;11.80;90.40;;;;;;4944658;29;20130;-73
2021/08/30 03:31:10;;;;;;;15.75;14.65;;;11.80;90.30;;;;;;4942772;29;20130;-72
2021/08/30 03:33:43;;;;;;;15.60;14.50;;;11.80;90.30;;;;;;4944193;29;20058;-74
2021/08/30 03:36:15;;;;;;;15.45;14.35;;;11.80;90.60;;;;;;4942728;29;21741;-73
2021/08/30 03:38:47;;;;;;;15.65;14.57;;;11.80;91.00;;;;;;4944201;29;20062;-74
2021/08/30 03:41:20;;;;;;;16.13;15.02;;;11.80;91.00;;;;;;4942474;29;20142;-72
2021/08/30 03:43:55;;;;;;;16.20;15.10;;;11.80;91.20;;;;;;4943959;29;20141;-72
2021/08/30 03:46:28;;;;;;;16.08;14.98;;;11.80;91.20;;;;;;4956950;29;20082;-72
2021/08/30 03:49:00;;;;;;;16.02;14.93;;;11.80;91.20;;;;;;4944572;29;20051;-73
2021/08/30 03:51:36;;;;;;;16.50;15.30;;;11.80;91.00;;;;;;4941736;29;20192;-73
2021/08/30 03:54:09;;;;;;;15.77;14.68;;;11.80;91.20;;;;;;4944270;29;20070;-73
2021/08/30 03:56:42;;;;;;;15.48;14.38;;;11.80;91.00;;;;;;4943011;29;20043;-73
2021/08/30 03:59:17;;;;;;;15.88;14.68;;;11.80;91.00;;;;;;4944149;29;20131;-74
2021/08/30 04:01:53;;;;;;;16.15;15.05;;;11.80;90.80;;;;;;4942238;29;20053;-73
2021/08/30 04:04:27;;;;;;;16.77;15.68;;;11.80;90.70;;;;;;4944560;29;20108;-71
2021/08/30 04:07:00;;;;;;;16.58;15.48;;;11.80;90.70;;;;;;4943200;29;20138;-72
2021/08/30 04:09:33;;;;;;;16.92;15.82;;;11.80;90.50;;;;;;4942839;29;20135;-73
2021/08/30 04:12:05;;;;;;;16.65;15.55;;;11.90;90.70;;;;;;4940949;29;20051;-73
2021/08/30 04:14:38;;;;;;;17.13;16.02;;;11.90;90.50;;;;;;4943498;29;20058;-72
2021/08/30 04:17:10;;;;;;;17.55;16.35;;;11.90;90.70;;;;;;4942565;29;20851;-71
2021/08/30 04:19:42;;;;;;;17.25;16.15;;;11.90;90.60;;;;;;4941887;29;20104;-72
2021/08/30 04:22:14;;;;;;;16.92;15.82;;;11.90;90.90;;;;;;4940572;29;20170;-72
2021/08/30 04:24:46;;;;;;;17.42;15.98;;;11.90;90.80;;;;;;4942673;29;20051;-72
2021/08/30 04:27:18;;;;;;;17.23;16.13;;;11.90;91.10;;;;;;4942926;29;20173;-72
2021/08/30 04:29:50;;;;;;;16.58;15.48;;;11.90;91.10;;;;;;4944324;29;20113;-72
2021/08/30 04:32:22;;;;;;;17.20;16.00;;;11.80;91.00;;;;;;4942958;29;20131;-74
2021/08/30 04:34:54;;;;;;;17.05;15.90;;;11.90;91.10;;;;;;4927526;30;20121;-73
2021/08/30 04:37:26;;;;;;;16.85;15.75;;;11.90;90.80;;;;;;4942651;29;20151;-73
2021/08/30 04:39:58;;;;;;;16.73;15.43;;;11.90;90.80;;;;;;4942656;29;20136;-73
2021/08/30 04:42:31;;;;;;;16.58;15.48;;;11.90;90.80;;;;;;4942444;29;20058;-72
2021/08/30 04:45:03;;;;;;;17.13;15.93;;;11.90;91.60;;;;;;4943056;29;20055;-74
2021/08/30 04:47:35;;;;;;;17.05;15.82;;;11.90;91.00;;;;;;4942456;29;20147;-74
2021/08/30 04:50:07;;;;;;;17.42;16.23;;;11.90;91.30;;;;;;4941906;29;20104;-69
2021/08/30 04:52:39;;;;;;;17.70;16.50;;;11.90;91.20;;;;;;4941464;29;20078;-72
2021/08/30 04:55:12;;;;;;;17.38;16.17;;;11.90;91.40;;;;;;4942350;29;20126;-72
2021/08/30 04:57:43;;;;;;;15.82;14.73;;;11.90;91.60;;;;;;4943530;29;20057;-72
2021/08/30 05:00:16;;;;;;;16.02;14.93;;;11.90;91.80;;;;;;4942081;29;20165;-73
2021/08/30 05:02:48;;;;;;;16.17;15.07;;;11.90;91.80;;;;;;4941440;29;20059;-73
2021/08/30 05:05:20;;;;;;;16.20;15.10;;;11.80;92.10;;;;;;4943795;29;20067;-73
2021/08/30 05:07:52;;;;;;;15.77;14.68;;;11.80;91.80;;;;;;4940292;29;20069;-74
2021/08/30 05:10:24;;;;;;;16.10;14.90;;;11.90;92.10;;;;;;4940406;29;20075;-75
2021/08/30 05:12:56;;;;;;;15.27;14.20;;;11.90;91.90;;;;;;4940879;29;20051;-74
2021/08/30 05:15:28;;;;;;;15.38;14.38;;;11.90;92.20;;;;;;4942658;29;20047;-75
2021/08/30 05:17:59;;;;;;;14.80;13.80;;;11.90;92.00;;;;;;4937082;29;20047;-75
2021/08/30 05:20:31;;;;;;;15.13;14.13;;;11.90;92.20;;;;;;4940839;29;20716;-77
2021/08/30 05:23:03;;;;;;;15.13;14.13;;;11.90;92.10;;;;;;4941560;29;20138;-75
2021/08/30 05:25:35;;;;;;;15.65;14.55;;;11.90;92.30;;;;;;4941903;29;20079;-74
2021/08/30 05:28:07;;;;;;;15.30;14.20;;;12.00;92.20;;;;;;4943351;29;20536;-74
2021/08/30 05:30:39;;;;;;;15.95;14.85;;;11.90;92.10;;;;;;4945398;29;20074;-74
2021/08/30 05:33:11;;;;;;;15.82;14.73;;;11.90;91.80;;;;;;4944903;29;20450;-74
2021/08/30 05:35:43;;;;;;;16.52;15.32;;;12.00;92.00;;;;;;4944986;29;20055;-74
2021/08/30 05:38:15;;;;;;;15.90;14.80;;;12.00;92.20;;;;;;4942959;29;20106;-73
2021/08/30 05:40:47;;;;;;;15.98;14.88;;;12.00;92.20;;;;;;4942695;29;20082;-74
2021/08/30 05:43:19;;;;;;;15.98;14.88;;;12.00;92.40;;;;;;4943681;29;20130;-74
2021/08/30 05:45:51;;;;;;;15.75;14.65;;;12.00;92.30;;;;;;4944388;29;20130;-74
2021/08/30 05:48:24;;;;;;;16.30;15.18;;;12.00;92.00;;;;;;4942441;29;20821;-73
2021/08/30 05:50:56;;;;;;;16.65;15.55;;;12.00;92.40;;;;;;4941689;29;20606;-74
2021/08/30 05:53:27;;;;;;;16.45;15.18;;;12.10;92.60;;;;;;4942847;29;20067;-75
2021/08/30 05:55:59;;;;;;;15.65;14.65;;;12.10;92.40;;;;;;4943250;29;20782;-73
2021/08/30 05:58:31;;;;;;;15.40;14.40;;;12.10;92.70;;;;;;4943814;29;20154;-73
2021/08/30 06:01:05;;;;;;;15.45;14.45;;;12.10;92.70;;;;;;4943116;29;20138;-74
2021/08/30 06:03:37;;;;;;;15.60;14.50;;;12.20;92.60;;;;;;4943500;29;20047;-73
2021/08/30 06:06:09;;;;;;;15.75;14.68;;;12.20;92.30;;;;;;4942298;29;20593;-74
2021/08/30 06:08:41;;;;;;;14.90;13.90;;;12.20;92.30;;;;;;4938341;29;20096;-74
2021/08/30 06:11:13;;;;;;;15.25;14.18;;;12.20;92.60;;;;;;4942752;29;20062;-72
2021/08/30 06:13:45;;;;;;;15.10;14.10;;;12.20;92.50;;;;;;4935991;29;20055;-73
2021/08/30 06:16:17;;;;;;;15.57;14.48;;;12.20;92.40;;;;;;4945554;29;20047;-71
2021/08/30 06:18:49;;;;;;;15.57;14.48;;;12.20;92.40;;;;;;4945698;29;20055;-73
2021/08/30 06:21:21;;;;;;;15.70;14.60;;;12.30;92.00;;;;;;4941530;29;20465;-73
2021/08/30 06:23:53;;;;;;;15.95;14.85;;;12.30;92.10;;;;;;4942976;29;20063;-74
2021/08/30 06:26:25;;;;;;;16.20;15.10;;;12.30;92.50;;;;;;4944266;29;20047;-74
2021/08/30 06:29:01;;;;;;;15.98;14.77;;;12.30;92.50;;;;;;4944017;29;20119;-75
2021/08/30 06:31:33;;;;;;;15.90;14.63;;;12.40;92.60;;;;;;4925728;29;20055;-73
2021/08/30 06:34:05;;;;;;;16.02;14.80;;;12.30;92.90;;;;;;4924536;30;20059;-73
2021/08/30 06:36:37;;;;;;;15.95;14.85;;;12.30;92.60;;;;;;4942974;29;20897;-74
2021/08/30 06:39:09;;;;;;;15.85;14.75;;;12.30;92.60;;;;;;4945012;29;20134;-73
2021/08/30 06:41:41;;;;;;;15.93;14.82;;;12.40;92.60;;;;;;4942785;29;20120;-74
2021/08/30 06:44:13;;;;;;;16.88;15.55;;;12.40;93.00;;;;;;4945514;29;20066;-72
2021/08/30 06:46:45;;;;;;;15.98;14.88;;;12.40;93.20;;;;;;4943478;29;20074;-73
2021/08/30 06:49:17;;;;;;;15.70;14.60;;;12.40;93.40;;;;;;4944856;29;20134;-74
2021/08/30 06:51:49;;;;;;;15.77;14.77;;;12.40;93.10;;;;;;4942978;29;20070;-74
2021/08/30 06:54:21;;;;;;;16.45;15.35;;;12.50;92.90;;;;;;4945398;29;20577;-74
2021/08/30 06:56:53;;;;;;;15.90;14.80;;;12.50;93.00;;;;;;4944104;29;20059;-74
2021/08/30 06:59:25;;;;;;;16.48;15.38;;;12.50;92.80;;;;;;4944195;29;20051;-74
2021/08/30 07:01:56;;;;;;;16.20;15.10;;;12.50;92.60;;;;;;4943314;29;20055;-74
2021/08/30 07:04:29;;;;;;;16.25;15.15;;;12.50;92.80;;;;;;4943714;29;20065;-74
2021/08/30 07:07:01;;;;;;;16.55;15.38;;;12.60;92.80;;;;;;4944394;29;20051;-74
2021/08/30 07:09:33;;;;;;;16.08;14.98;;;12.60;92.90;;;;;;4942895;29;20051;-74
2021/08/30 07:12:06;;;;;;;16.50;15.40;;;12.60;92.80;;;;;;4944338;29;20051;-75
2021/08/30 07:14:38;;;;;;;17.15;15.95;;;12.70;93.00;;;;;;4944172;29;20058;-73
2021/08/30 07:17:09;;;;;;;16.67;15.48;;;12.70;92.90;;;;;;4943355;29;20147;-74
2021/08/30 07:19:41;;;;;;;17.38;16.17;;;12.70;92.90;;;;;;4944895;29;20047;-74
2021/08/30 07:22:13;;;;;;;16.55;15.35;;;12.70;93.20;;;;;;4941440;29;20157;-75
2021/08/30 07:24:45;;;;;;;16.38;15.27;;;12.70;93.00;;;;;;4936635;29;20135;-73
2021/08/30 07:27:17;;;;;;;16.70;15.50;;;12.70;92.90;;;;;;4942851;29;20383;-75
2021/08/30 07:29:50;;;;;;;16.48;15.38;;;12.70;93.10;;;;;;4944507;29;20051;-75
2021/08/30 07:32:22;;;;;;;16.40;15.30;;;12.80;92.80;;;;;;4942429;29;20051;-74
2021/08/30 07:34:54;;;;;;;16.23;15.13;;;12.80;92.90;;;;;;4944398;29;20057;-73
2021/08/30 07:37:26;;;;;;;16.45;15.35;;;12.80;92.90;;;;;;4943772;29;20433;-73
2021/08/30 07:39:58;;;;;;;16.60;15.50;;;12.80;92.50;;;;;;4934823;29;20141;-74
2021/08/30 07:42:30;;;;;;;16.77;15.63;;;12.80;93.00;;;;;;4942733;29;20166;-76
2021/08/30 07:45:02;;;;;;;17.38;16.02;;;12.90;93.30;;;;;;4943594;29;20077;-75
2021/08/30 07:47:34;;;;;;;17.42;16.15;;;12.90;93.00;;;;;;4944002;29;20059;-75
2021/08/30 07:50:06;;;;;;;17.35;16.15;;;13.00;93.10;;;;;;4944481;29;20108;-75
2021/08/30 07:52:38;;;;;;;17.10;15.90;;;13.00;93.00;;;;;;4941356;29;20054;-75
2021/08/30 07:55:11;;;;;;;17.00;15.70;;;13.10;93.00;;;;;;4942511;29;20043;-75
2021/08/30 07:57:43;;;;;;;17.38;16.17;;;13.10;92.80;;;;;;4943345;29;20047;-75
2021/08/30 08:00:16;;;;;;;17.15;15.85;;;13.20;92.90;;;;;;4943565;29;20046;-74
2021/08/30 08:02:48;;;;;;;17.30;16.10;;;13.20;92.60;;;;;;4941896;29;20050;-74
2021/08/30 08:05:21;;;;;;;18.08;16.77;;;13.30;92.60;;;;;;4943638;29;20043;-74
2021/08/30 08:07:52;;;;;;;17.15;15.85;;;13.20;92.50;;;;;;4940833;29;20429;-75
2021/08/30 08:10:24;;;;;;;17.65;16.35;;;13.30;92.30;;;;;;4941521;29;20054;-74
2021/08/30 08:12:57;;;;;;;17.10;15.90;;;13.30;92.50;;;;;;4943183;29;20158;-74
2021/08/30 08:15:30;;;;;;;17.40;16.10;;;13.30;92.50;;;;;;4940960;29;20047;-73
2021/08/30 08:18:03;;;;;;;17.17;15.82;;;13.20;92.50;;;;;;4943269;29;22008;-74
2021/08/30 08:20:35;;;;;;;16.65;15.52;;;13.20;92.50;;;;;;4942387;29;20058;-73
2021/08/30 08:23:07;;;;;;;17.08;15.80;;;13.20;92.40;;;;;;4942031;29;20541;-74
2021/08/30 08:25:39;;;;;;;16.48;15.27;;;13.20;92.40;;;;;;4943614;29;20126;-74
2021/08/30 08:28:11;;;;;;;16.60;15.40;;;13.20;92.10;;;;;;4943321;29;20125;-75
2021/08/30 08:30:43;;;;;;;16.33;15.23;;;13.20;92.10;;;;;;4943023;29;20051;-75
2021/08/30 08:33:15;;;;;;;16.70;15.50;;;13.20;92.00;;;;;;4942306;29;20126;-75
2021/08/30 08:35:47;;;;;;;16.92;15.73;;;13.30;92.00;;;;;;4941486;29;20051;-75
2021/08/30 08:38:20;;;;;;;16.40;15.30;;;13.30;92.10;;;;;;4940726;29;20082;-75
2021/08/30 08:40:52;;;;;;;16.67;15.48;;;13.20;92.40;;;;;;4942850;29;20150;-76
2021/08/30 08:43:24;;;;;;;17.13;15.93;;;13.30;92.30;;;;;;4939161;29;20059;-74
2021/08/30 08:45:56;;;;;;;16.88;15.68;;;13.20;92.30;;;;;;4941555;29;20083;-75
2021/08/30 08:48:28;;;;;;;16.98;15.77;;;13.30;92.50;;;;;;4943173;29;20050;-75
2021/08/30 08:51:01;;;;;;;16.90;15.75;;;13.30;92.30;;;;;;4941920;29;20055;-75
2021/08/30 08:53:33;;;;;;;16.48;15.38;;;13.30;92.40;;;;;;4942635;29;20047;-74
2021/08/30 08:56:05;;;;;;;17.02;15.82;;;13.30;92.70;;;;;;4942702;29;20545;-75
2021/08/30 08:58:37;;;;;;;16.83;15.65;;;13.30;92.70;;;;;;4943043;29;20097;-74
2021/08/30 09:01:13;;;;;;;16.75;15.55;;;13.40;92.70;;;;;;4942140;29;20051;-74
2021/08/30 09:03:48;;;;;;;17.92;16.65;;;13.40;92.70;;;;;;4941887;29;20709;-73
2021/08/30 09:06:27;;;;;;;17.67;16.42;;;13.40;92.70;;;;;;4942764;29;20174;-73
2021/08/30 09:09:04;;;;;;;20.07;18.67;;;13.50;93.30;;;;;;4944181;29;20047;-74
2021/08/30 09:11:43;;;;;;;17.25;16.05;;;13.50;92.60;;;;;;4941706;29;20158;-73
2021/08/30 09:14:24;;;;;;;17.90;16.70;;;13.60;92.70;;;;;;4933528;29;20047;-73
2021/08/30 09:17:03;;;;;;;16.83;15.73;;;13.60;92.00;;;;;;4941511;29;20308;-73
2021/08/30 09:19:37;;;;;;;16.80;15.70;;;13.60;92.60;;;;;;4943278;29;20083;-74
2021/08/30 09:22:10;;;;;;;16.52;15.43;;;13.70;92.90;;;;;;4941227;29;20139;-73
2021/08/30 09:24:42;;;;;;;17.02;15.93;;;13.60;91.60;;;;;;4942974;29;20051;-73
2021/08/30 09:27:14;;;;;;;16.50;15.40;;;13.60;91.60;;;;;;4943073;29;20484;-73
2021/08/30 09:29:46;;;;;;;18.08;16.88;;;13.60;91.70;;;;;;4942509;29;20039;-73
2021/08/30 09:32:19;;;;;;;17.23;16.02;;;13.70;92.00;;;;;;4941354;29;20158;-74
2021/08/30 09:34:53;;;;;;;17.98;16.77;;;13.70;93.10;;;;;;4942372;29;20138;-74
2021/08/30 09:37:26;;;;;;;16.30;15.20;;;13.80;92.50;;;;;;4941888;29;20056;-74
2021/08/30 09:40:00;;;;;;;16.70;15.60;;;13.90;92.30;;;;;;4952372;29;20172;-73
2021/08/30 09:42:32;;;;;;;16.48;15.38;;;13.90;91.10;;;;;;4940616;29;20421;-74
2021/08/30 09:45:26;;;;;;;17.10;16.00;;;13.90;91.90;;;;;;4942245;29;20360;-73
2021/08/30 09:48:00;;;;;;;16.45;15.35;;;14.00;92.00;;;;;;4941924;29;20531;-73
2021/08/30 09:50:36;;;;;;;16.73;15.52;;;14.00;91.30;;;;;;4941635;29;20112;-74
2021/08/30 09:53:08;;;;;;;16.27;15.18;;;14.10;91.90;;;;;;4941837;29;20648;-73
2021/08/30 09:55:41;;;;;;;17.13;15.93;;;14.10;91.60;;;;;;4942832;29;20071;-73
2021/08/30 09:58:15;;;;;;;16.77;15.68;;;14.10;91.30;;;;;;4941788;29;20052;-73
2021/08/30 10:00:48;;;;;;;16.60;15.50;;;14.10;90.90;;;;;;4941662;29;20808;-75
2021/08/30 10:03:21;;;;;;;17.70;16.50;;;14.10;90.80;;;;;;4940167;29;20128;-74
2021/08/30 10:05:54;;;;;;;17.83;16.52;;;14.20;90.80;;;;;;4942015;29;20849;-75
2021/08/30 10:08:27;;;;;;;19.00;17.50;;;14.20;91.30;;;;;;4941505;29;20059;-74
2021/08/30 10:10:59;;;;;;;18.10;16.80;;;14.20;91.40;;;;;;4941688;29;20052;-74
2021/08/30 10:13:31;;;;;;;19.13;17.73;;;14.10;91.10;;;;;;4939077;29;20101;-75
2021/08/30 10:16:04;;;;;;;20.95;19.30;;;14.10;92.60;;;;;;4943859;29;20129;-75
2021/08/30 10:18:47;;;;;;;23.27;21.38;;;14.10;91.20;;;;;;4945431;29;20104;-75
2021/08/30 10:21:19;;;;;;;35.38;31.90;;;14.00;90.60;;;;;;4944169;29;20731;-75
2021/08/30 10:23:51;;;;;;;30.10;27.40;;;14.00;91.50;;;;;;4946172;29;20693;-74
2021/08/30 10:26:37;;;;;;;22.15;20.35;;;14.10;91.70;;;;;;4943725;29;20078;-74
2021/08/30 10:29:11;;;;;;;21.08;19.35;;;14.10;91.60;;;;;;4943669;29;20051;-75
2021/08/30 10:31:50;;;;;;;22.80;20.90;;;14.10;91.50;;;;;;4943351;29;20147;-74
2021/08/30 10:34:30;;;;;;;21.58;19.90;;;14.10;91.50;;;;;;4945537;29;20434;-75
2021/08/30 10:37:04;;;;;;;19.60;18.20;;;14.10;91.40;;;;;;4944430;29;20142;-76
2021/08/30 10:39:45;;;;;;;17.80;16.50;;;14.20;91.30;;;;;;4945574;29;20526;-75
2021/08/30 10:42:17;;;;;;;18.25;16.95;;;14.20;90.40;;;;;;4944418;29;20134;-75
2021/08/30 10:44:54;;;;;;;18.08;16.77;;;14.20;91.00;;;;;;4938991;29;20075;-75
2021/08/30 10:47:35;;;;;;;18.00;16.67;;;14.20;90.40;;;;;;4944528;29;20062;-75
2021/08/30 10:50:19;;;;;;;18.23;16.92;;;14.10;90.70;;;;;;4943352;29;20662;-74
2021/08/30 10:53:06;;;;;;;19.52;18.02;;;14.10;90.90;;;;;;4944919;29;20098;-76
2021/08/30 10:55:41;;;;;;;17.75;16.45;;;14.20;91.10;;;;;;4941424;29;20051;-74
2021/08/30 10:58:17;;;;;;;17.67;16.38;;;14.20;91.20;;;;;;4944408;29;20130;-74
2021/08/30 11:00:50;;;;;;;18.23;16.92;;;14.20;91.10;;;;;;4942850;29;20885;-75
2021/08/30 11:03:33;;;;;;;21.55;19.65;;;14.30;91.10;;;;;;4944428;29;20047;-74
2021/08/30 11:06:08;;;;;;;21.42;19.83;;;14.40;90.60;;;;;;4944018;29;20829;-75
2021/08/30 11:08:41;;;;;;;19.75;18.35;;;14.50;90.50;;;;;;4945361;29;20049;-74
2021/08/30 11:11:13;;;;;;;17.50;16.30;;;14.50;90.80;;;;;;4944287;29;20051;-74
2021/08/30 11:14:08;;;;;;;18.58;17.27;;;14.60;90.10;;;;;;4935822;29;20136;-73
2021/08/30 11:16:40;;;;;;;18.23;16.92;;;14.60;89.40;;;;;;4944031;29;20135;-71
2021/08/30 11:19:14;;;;;;;19.10;17.70;;;14.60;90.00;;;;;;4957895;29;20067;-71
2021/08/30 11:21:55;;;;;;;17.20;16.00;;;14.60;89.60;;;;;;4942687;29;20079;-74
2021/08/30 11:24:33;;;;;;;17.65;16.45;;;14.50;89.10;;;;;;4944536;29;20131;-73
2021/08/30 11:27:14;;;;;;;18.13;16.92;;;14.50;90.00;;;;;;4943843;29;20059;-74
2021/08/30 11:29:51;;;;;;;17.58;16.38;;;14.40;90.10;;;;;;4944073;29;20047;-74
2021/08/30 11:32:25;;;;;;;17.27;16.05;;;14.40;89.90;;;;;;4942505;29;20054;-75
2021/08/30 11:34:59;;;;;;;17.10;15.90;;;14.40;89.70;;;;;;4938056;29;20120;-73
2021/08/30 11:37:34;;;;;;;17.23;16.10;;;14.40;89.80;;;;;;4944440;29;20138;-74
2021/08/30 11:40:11;;;;;;;17.65;16.45;;;14.30;90.40;;;;;;4943110;29;20822;-74
2021/08/30 11:42:43;;;;;;;17.50;16.20;;;14.20;90.90;;;;;;4943431;29;20083;-74
2021/08/30 11:45:15;;;;;;;17.50;16.30;;;14.20;91.00;;;;;;4943257;29;20485;-75
2021/08/30 11:47:50;;;;;;;17.17;16.08;;;14.30;91.30;;;;;;4944542;29;20135;-74
2021/08/30 11:50:22;;;;;;;17.65;16.45;;;14.30;90.60;;;;;;4942743;29;20093;-74
2021/08/30 11:52:59;;;;;;;17.13;16.02;;;14.30;90.90;;;;;;4943264;29;20134;-75
2021/08/30 11:55:33;;;;;;;16.95;15.85;;;14.30;90.20;;;;;;4943520;29;20054;-74
2021/08/30 11:58:05;;;;;;;17.42;16.23;;;14.40;91.40;;;;;;4944010;29;20116;-73
2021/08/30 12:00:37;;;;;;;17.20;16.10;;;14.50;91.30;;;;;;4941063;29;20144;-74
2021/08/30 12:03:14;;;;;;;17.30;16.20;;;14.50;91.10;;;;;;4942640;29;20047;-72
2021/08/30 12:05:46;;;;;;;17.00;15.80;;;14.60;91.30;;;;;;4942013;29;20051;-73
2021/08/30 12:08:23;;;;;;;17.50;16.30;;;14.60;90.70;;;;;;4943964;29;20532;-72
2021/08/30 12:11:04;;;;;;;17.30;16.15;;;14.70;90.90;;;;;;4943211;29;20108;-72
2021/08/30 12:13:44;;;;;;;17.17;15.98;;;14.70;91.30;;;;;;4941034;29;20112;-72
2021/08/30 12:16:23;;;;;;;16.80;15.70;;;14.80;91.40;;;;;;4941970;29;20070;-73
2021/08/30 12:18:55;;;;;;;18.33;17.02;;;14.90;91.60;;;;;;4943962;29;20556;-72
2021/08/30 12:21:34;;;;;;;18.17;16.88;;;15.00;91.90;;;;;;4941203;29;20055;-72
2021/08/30 12:24:08;;;;;;;17.90;16.70;;;15.00;91.60;;;;;;4936169;29;20043;-73
2021/08/30 12:26:40;;;;;;;18.13;16.92;;;15.00;91.70;;;;;;4935807;29;20138;-73
2021/08/30 12:29:12;;;;;;;18.40;17.15;;;15.00;91.20;;;;;;4957150;29;20145;-73
2021/08/30 12:31:53;;;;;;;17.85;16.65;;;15.00;91.40;;;;;;4940318;29;20178;-73
2021/08/30 12:34:26;;;;;;;18.20;17.00;;;15.00;90.90;;;;;;4943063;29;20057;-73
2021/08/30 12:36:58;;;;;;;18.00;16.70;;;15.00;90.80;;;;;;4941541;29;20086;-72
2021/08/30 12:39:29;;;;;;;17.65;16.45;;;15.00;90.60;;;;;;4939607;29;20079;-73
2021/08/30 12:42:02;;;;;;;17.77;16.52;;;15.00;90.70;;;;;;4942319;29;20452;-73
2021/08/30 12:44:34;;;;;;;18.20;16.90;;;15.00;90.50;;;;;;4925887;29;20070;-73
2021/08/30 12:47:06;;;;;;;18.05;16.85;;;15.00;90.80;;;;;;4941060;29;20166;-72
2021/08/30 12:49:38;;;;;;;17.70;16.50;;;14.90;91.00;;;;;;4942059;29;20527;-73
2021/08/30 12:52:09;;;;;;;17.98;16.77;;;14.90;90.90;;;;;;4941756;29;20136;-72
2021/08/30 12:54:41;;;;;;;18.10;16.80;;;15.00;91.70;;;;;;4943110;29;20058;-73
2021/08/30 12:57:15;;;;;;;18.13;16.83;;;15.00;91.20;;;;;;4943075;29;20129;-73
2021/08/30 12:59:47;;;;;;;18.15;16.85;;;15.10;91.40;;;;;;4943319;29;20043;-73
2021/08/30 13:02:19;;;;;;;18.23;16.92;;;15.20;91.20;;;;;;4942271;29;20156;-72
2021/08/30 13:04:52;;;;;;;18.20;16.90;;;15.20;90.20;;;;;;4943335;29;20135;-72